Aérodrome :
LOGIN :

S'inscrire | Disclaimer

   EN    FR    IT 

 










Légende :    VFR   VFR Marginal   IFR   IFR Intensif   IFR Très Intensif
Visi : 
Plafond : 
>= 8 km
>= 3000ft
5 à 8 km
1000 à 3000 ft
1500m à 5 km
500 à 1000 ft
800 à 1500m
200 à 500 ft
< 800m
< 200 ft
Symboles :   Orages  Brouillard  Fortes neiges  Fortes précipitations  Vent > 20 kt
SIGMETs :   Divers  Orages  Givrage  Turbulence  Onde Orograph.  Cendres Volcan.







- Altitude de l'aérodrome : 171 ft
- Code IATA : EGC
- Voir les cartes d'approche


LFBE - Bergerac

DERNIER METAR :
  • 271300Z AUTO 27010KT 9999 BKN022/// BKN031/// OVC038/// ///TCU 19/14 Q1015 TEMPO 2000 -RADZ OVC004

METARs EXPIRÉS :
  • 271230Z AUTO 27005KT 220V330 9999 SCT018 SCT026 BKN033 19/15 Q1015 TEMPO 2000 -RADZ OVC004
  • 271200Z AUTO 26009KT 9999 SCT019 BKN027 OVC033 17/14 Q1016 TEMPO 2000 -RADZ OVC004
  • 271130Z AUTO 27009KT 9999 SCT014 BKN023 OVC030 17/13 Q1016 TEMPO 2000 -RADZ OVC004
  • 271100Z AUTO 26007KT 230V300 9999 BKN012 BKN018 BKN024 18/14 Q1016 TEMPO 1500 RA OVC004
  • 271030Z AUTO 28008KT 9999 2700 BKN009 BKN015 BKN025 16/14 Q1016 TEMPO 1500 RA OVC004
  • 271000Z AUTO 27007KT 9999 BKN008 BKN015 OVC023 16/14 Q1016 TEMPO 1500 RA OVC004

TAF TAF LFBE
Valide du 27 à 12h jusqu'au 28 à 12h UTC


271100Z 2712/2812 27005KT 9999 BKN015
TEMPO 2712/2715 2000 -RADZ OVC004
TEMPO 2715/2720 -SHRA BKN020TCU
TEMPO 2800/2808 -RA BKN010
TEMPO 2808/2812 30012G22KT -SHRA BKN020TCU
Pas de NOTAMs connus pour ce terrain.



MET'MAP, la Météo Aéronautique d'un coup d'oeil ! - Copyright ORBIFLY Décembre 2007 - Disclaimer

ORBIFLY MET'MAP TEAM :

Programmation & Développement : Alexandra Zaïnal
Conception & Développement : Baudouin d'Aumeries
Co-Programmation & Développement : Marc-Olivier Méhu
Soutien technique & logistique : Manuel Goepfert

Contact : metmap@orbifly.com




SOURCES & CREDITS :

   NOAA